Terminal Aerodrome Forecast
Issued by NWS

Home | Current Version | Previous Version | Text Only | Print | Product List | Glossary On
Versions: 1 2 3 4 5 6 7 8 9 10 11 12 13 14 15 16 17 18
000
FTUS46 KLOX 260306 AAA
TAFWJF
TAF AMD
KWJF 260306Z 2603/2624 28016G21KT P6SM SKC
     FM260400 27015KT P6SM SKC
     FM261700 25015G25KT P6SM SKC
     FM262200 24024G34KT P6SM SKC=

USA.gov is the U.S. government's official web portal to all federal, state and local government web resources and services.